sensor_id;sensor_type;location;lat;lon;timestamp;temperature;humidity
9658;DHT22;4867;48.112;11.622;2023-01-10T00:00:48;3.90;99.90
9658;DHT22;4867;48.112;11.622;2023-01-10T00:03:15;3.90;99.90
9658;DHT22;4867;48.112;11.622;2023-01-10T00:05:43;3.90;99.90
9658;DHT22;4867;48.112;11.622;2023-01-10T00:08:14;3.90;99.90
9658;DHT22;4867;48.112;11.622;2023-01-10T00:10:41;3.90;99.90
9658;DHT22;4867;48.112;11.622;2023-01-10T00:13:13;3.90;99.90
9658;DHT22;4867;48.112;11.622;2023-01-10T00:15:51;3.90;99.90
9658;DHT22;4867;48.112;11.622;2023-01-10T00:18:19;3.90;99.90
9658;DHT22;4867;48.112;11.622;2023-01-10T00:20:47;3.90;99.90
9658;DHT22;4867;48.112;11.622;2023-01-10T00:23:16;3.80;99.90
9658;DHT22;4867;48.112;11.622;2023-01-10T00:25:45;3.90;99.90
9658;DHT22;4867;48.112;11.622;2023-01-10T00:28:12;4.00;99.90
9658;DHT22;4867;48.112;11.622;2023-01-10T00:30:51;4.00;99.90
9658;DHT22;4867;48.112;11.622;2023-01-10T00:33:23;4.10;99.90
9658;DHT22;4867;48.112;11.622;2023-01-10T00:35:50;4.10;99.90
9658;DHT22;4867;48.112;11.622;2023-01-10T00:38:18;4.10;99.90
9658;DHT22;4867;48.112;11.622;2023-01-10T00:40:45;4.10;99.90
9658;DHT22;4867;48.112;11.622;2023-01-10T00:43:13;4.10;99.90
9658;DHT22;4867;48.112;11.622;2023-01-10T00:45:58;4.10;99.90
9658;DHT22;4867;48.112;11.622;2023-01-10T00:48:26;4.20;99.90
9658;DHT22;4867;48.112;11.622;2023-01-10T00:50:53;4.20;99.90
9658;DHT22;4867;48.112;11.622;2023-01-10T00:53:21;4.10;99.90
9658;DHT22;4867;48.112;11.622;2023-01-10T00:55:48;4.20;99.90
9658;DHT22;4867;48.112;11.622;2023-01-10T00:58:16;4.20;99.90
9658;DHT22;4867;48.112;11.622;2023-01-10T01:00:43;4.20;99.90
9658;DHT22;4867;48.112;11.622;2023-01-10T01:03:19;4.20;99.90
9658;DHT22;4867;48.112;11.622;2023-01-10T01:05:47;4.20;99.90
9658;DHT22;4867;48.112;11.622;2023-01-10T01:08:16;4.20;99.90
9658;DHT22;4867;48.112;11.622;2023-01-10T01:10:44;4.30;99.90
9658;DHT22;4867;48.112;11.622;2023-01-10T01:13:17;4.30;99.90
9658;DHT22;4867;48.112;11.622;2023-01-10T01:15:45;4.30;99.90
9658;DHT22;4867;48.112;11.622;2023-01-10T01:18:19;4.30;99.90
9658;DHT22;4867;48.112;11.622;2023-01-10T01:20:47;4.20;99.90
9658;DHT22;4867;48.112;11.622;2023-01-10T01:23:14;4.20;99.90
9658;DHT22;4867;48.112;11.622;2023-01-10T01:25:42;4.20;99.90
9658;DHT22;4867;48.112;11.622;2023-01-10T01:28:12;4.20;99.90
9658;DHT22;4867;48.112;11.622;2023-01-10T01:30:39;4.20;99.90
9658;DHT22;4867;48.112;11.622;2023-01-10T01:33:07;4.20;99.90
9658;DHT22;4867;48.112;11.622;2023-01-10T01:35:34;4.20;99.90
9658;DHT22;4867;48.112;11.622;2023-01-10T01:38:01;4.30;99.90
9658;DHT22;4867;48.112;11.622;2023-01-10T01:40:28;4.20;99.90
9658;DHT22;4867;48.112;11.622;2023-01-10T01:42:56;4.20;99.90
9658;DHT22;4867;48.112;11.622;2023-01-10T01:45:35;4.00;99.90
9658;DHT22;4867;48.112;11.622;2023-01-10T01:48:08;4.10;99.90
9658;DHT22;4867;48.112;11.622;2023-01-10T01:56:12;4.20;99.90
9658;DHT22;4867;48.112;11.622;2023-01-10T01:58:48;4.20;99.90
9658;DHT22;4867;48.112;11.622;2023-01-10T02:01:17;4.30;99.90
9658;DHT22;4867;48.112;11.622;2023-01-10T02:03:53;4.40;99.90
9658;DHT22;4867;48.112;11.622;2023-01-10T02:06:23;4.30;99.90
9658;DHT22;4867;48.112;11.622;2023-01-10T02:09:13;4.30;99.90
9658;DHT22;4867;48.112;11.622;2023-01-10T02:11:41;4.30;99.90
9658;DHT22;4867;48.112;11.622;2023-01-10T02:14:09;4.30;99.90
9658;DHT22;4867;48.112;11.622;2023-01-10T02:16:37;4.30;99.90
9658;DHT22;4867;48.112;11.622;2023-01-10T02:19:12;4.40;99.90
9658;DHT22;4867;48.112;11.622;2023-01-10T02:27:21;4.40;99.90
9658;DHT22;4867;48.112;11.622;2023-01-10T02:32:59;4.30;99.90
9658;DHT22;4867;48.112;11.622;2023-01-10T02:38:50;4.30;99.90
9658;DHT22;4867;48.112;11.622;2023-01-10T02:46:55;4.20;99.90
9658;DHT22;4867;48.112;11.622;2023-01-10T02:49:22;4.10;99.90
9658;DHT22;4867;48.112;11.622;2023-01-10T02:51:50;4.10;99.90
9658;DHT22;4867;48.112;11.622;2023-01-10T02:54:24;4.00;99.90
9658;DHT22;4867;48.112;11.622;2023-01-10T03:05:09;4.10;99.90
9658;DHT22;4867;48.112;11.622;2023-01-10T03:13:11;4.00;99.90
9658;DHT22;4867;48.112;11.622;2023-01-10T03:15:41;4.00;99.90
9658;DHT22;4867;48.112;11.622;2023-01-10T03:18:22;4.00;99.90
9658;DHT22;4867;48.112;11.622;2023-01-10T03:20:53;3.90;99.90
9658;DHT22;4867;48.112;11.622;2023-01-10T03:23:23;3.90;99.90
9658;DHT22;4867;48.112;11.622;2023-01-10T03:25:54;3.80;99.90
9658;DHT22;4867;48.112;11.622;2023-01-10T03:28:28;3.90;99.90
9658;DHT22;4867;48.112;11.622;2023-01-10T03:31:05;3.90;99.90
9658;DHT22;4867;48.112;11.622;2023-01-10T03:33:36;3.90;99.90
9658;DHT22;4867;48.112;11.622;2023-01-10T03:39:12;4.00;99.90
9658;DHT22;4867;48.112;11.622;2023-01-10T03:44:33;4.00;99.90
9658;DHT22;4867;48.112;11.622;2023-01-10T03:47:26;4.00;99.90
9658;DHT22;4867;48.112;11.622;2023-01-10T03:50:41;4.00;99.90
9658;DHT22;4867;48.112;11.622;2023-01-10T03:52:48;3.90;99.90
9658;DHT22;4867;48.112;11.622;2023-01-10T03:55:21;3.80;99.90
9658;DHT22;4867;48.112;11.622;2023-01-10T03:57:49;3.80;99.90
9658;DHT22;4867;48.112;11.622;2023-01-10T04:00:16;3.80;99.90
9658;DHT22;4867;48.112;11.622;2023-01-10T04:02:44;3.80;99.90
9658;DHT22;4867;48.112;11.622;2023-01-10T04:05:11;4.00;99.90
9658;DHT22;4867;48.112;11.622;2023-01-10T04:07:39;3.90;99.90
9658;DHT22;4867;48.112;11.622;2023-01-10T04:10:06;4.00;99.90
9658;DHT22;4867;48.112;11.622;2023-01-10T04:12:34;4.10;99.90
9658;DHT22;4867;48.112;11.622;2023-01-10T04:15:01;4.10;99.90
9658;DHT22;4867;48.112;11.622;2023-01-10T04:17:29;4.10;99.90
9658;DHT22;4867;48.112;11.622;2023-01-10T04:19:56;4.00;99.90
9658;DHT22;4867;48.112;11.622;2023-01-10T04:22:23;4.10;99.90
9658;DHT22;4867;48.112;11.622;2023-01-10T04:24:50;4.10;99.90
9658;DHT22;4867;48.112;11.622;2023-01-10T04:27:18;4.00;99.90
9658;DHT22;4867;48.112;11.622;2023-01-10T04:29:46;4.00;99.90
9658;DHT22;4867;48.112;11.622;2023-01-10T04:32:13;4.00;99.90
9658;DHT22;4867;48.112;11.622;2023-01-10T04:34:40;4.10;99.90
9658;DHT22;4867;48.112;11.622;2023-01-10T04:37:08;4.10;99.90
9658;DHT22;4867;48.112;11.622;2023-01-10T04:39:35;4.10;99.90
9658;DHT22;4867;48.112;11.622;2023-01-10T04:42:02;4.10;99.90
9658;DHT22;4867;48.112;11.622;2023-01-10T04:44:30;4.10;99.90
9658;DHT22;4867;48.112;11.622;2023-01-10T04:46:57;4.10;99.90
9658;DHT22;4867;48.112;11.622;2023-01-10T04:49:24;4.00;99.90
9658;DHT22;4867;48.112;11.622;2023-01-10T04:51:51;4.00;99.90
9658;DHT22;4867;48.112;11.622;2023-01-10T04:54:20;4.00;99.90
9658;DHT22;4867;48.112;11.622;2023-01-10T04:56:48;4.00;99.90
9658;DHT22;4867;48.112;11.622;2023-01-10T04:59:15;3.90;99.90
9658;DHT22;4867;48.112;11.622;2023-01-10T05:01:43;3.90;99.90
9658;DHT22;4867;48.112;11.622;2023-01-10T05:04:10;3.80;99.90
9658;DHT22;4867;48.112;11.622;2023-01-10T05:06:38;3.80;99.90
9658;DHT22;4867;48.112;11.622;2023-01-10T05:09:07;3.90;99.90
9658;DHT22;4867;48.112;11.622;2023-01-10T05:11:34;3.80;99.90
9658;DHT22;4867;48.112;11.622;2023-01-10T05:14:02;3.80;99.90
9658;DHT22;4867;48.112;11.622;2023-01-10T05:16:29;3.80;99.90
9658;DHT22;4867;48.112;11.622;2023-01-10T05:18:56;3.80;99.90
9658;DHT22;4867;48.112;11.622;2023-01-10T05:21:24;3.70;99.90
9658;DHT22;4867;48.112;11.622;2023-01-10T05:23:51;3.70;99.90
9658;DHT22;4867;48.112;11.622;2023-01-10T05:26:21;3.70;99.90
9658;DHT22;4867;48.112;11.622;2023-01-10T05:28:49;3.80;99.90
9658;DHT22;4867;48.112;11.622;2023-01-10T05:31:17;3.80;99.90
9658;DHT22;4867;48.112;11.622;2023-01-10T05:33:47;3.80;99.90
9658;DHT22;4867;48.112;11.622;2023-01-10T05:36:17;3.70;99.90
9658;DHT22;4867;48.112;11.622;2023-01-10T05:38:45;3.80;99.90
9658;DHT22;4867;48.112;11.622;2023-01-10T05:41:12;3.80;99.90
9658;DHT22;4867;48.112;11.622;2023-01-10T05:43:40;3.80;99.90
9658;DHT22;4867;48.112;11.622;2023-01-10T05:46:07;3.80;99.90
9658;DHT22;4867;48.112;11.622;2023-01-10T05:48:34;3.70;99.90
9658;DHT22;4867;48.112;11.622;2023-01-10T05:51:02;3.70;99.90
9658;DHT22;4867;48.112;11.622;2023-01-10T05:53:29;3.70;99.90
9658;DHT22;4867;48.112;11.622;2023-01-10T05:56:01;3.70;99.90
9658;DHT22;4867;48.112;11.622;2023-01-10T05:58:29;3.70;99.90
9658;DHT22;4867;48.112;11.622;2023-01-10T06:00:57;3.70;99.90
9658;DHT22;4867;48.112;11.622;2023-01-10T06:03:25;3.70;99.90
9658;DHT22;4867;48.112;11.622;2023-01-10T06:05:56;3.80;99.90
9658;DHT22;4867;48.112;11.622;2023-01-10T06:08:23;3.80;99.90
9658;DHT22;4867;48.112;11.622;2023-01-10T06:10:51;3.90;99.90
9658;DHT22;4867;48.112;11.622;2023-01-10T06:13:18;3.80;99.90
9658;DHT22;4867;48.112;11.622;2023-01-10T06:15:46;3.80;99.90
9658;DHT22;4867;48.112;11.622;2023-01-10T06:18:13;3.70;99.90
9658;DHT22;4867;48.112;11.622;2023-01-10T06:20:42;3.70;99.90
9658;DHT22;4867;48.112;11.622;2023-01-10T06:23:09;3.70;99.90
9658;DHT22;4867;48.112;11.622;2023-01-10T06:25:37;3.70;99.90
9658;DHT22;4867;48.112;11.622;2023-01-10T06:28:07;3.60;99.90
9658;DHT22;4867;48.112;11.622;2023-01-10T06:30:35;3.70;99.90
9658;DHT22;4867;48.112;11.622;2023-01-10T06:33:04;3.80;99.90
9658;DHT22;4867;48.112;11.622;2023-01-10T06:35:32;3.80;99.90
9658;DHT22;4867;48.112;11.622;2023-01-10T06:38:00;3.80;99.90
9658;DHT22;4867;48.112;11.622;2023-01-10T06:40:27;3.80;99.90
9658;DHT22;4867;48.112;11.622;2023-01-10T06:42:55;3.90;99.90
9658;DHT22;4867;48.112;11.622;2023-01-10T06:45:22;4.00;99.90
9658;DHT22;4867;48.112;11.622;2023-01-10T06:47:49;3.80;99.90
9658;DHT22;4867;48.112;11.622;2023-01-10T06:50:16;3.80;99.90
9658;DHT22;4867;48.112;11.622;2023-01-10T06:52:43;3.80;99.90
9658;DHT22;4867;48.112;11.622;2023-01-10T06:55:11;3.80;99.90
9658;DHT22;4867;48.112;11.622;2023-01-10T06:57:38;3.90;99.90
9658;DHT22;4867;48.112;11.622;2023-01-10T07:00:07;3.80;99.90
9658;DHT22;4867;48.112;11.622;2023-01-10T07:02:35;3.90;99.90
9658;DHT22;4867;48.112;11.622;2023-01-10T07:05:03;3.90;99.90
9658;DHT22;4867;48.112;11.622;2023-01-10T07:07:30;3.80;99.90
9658;DHT22;4867;48.112;11.622;2023-01-10T07:09:57;3.80;99.90
9658;DHT22;4867;48.112;11.622;2023-01-10T07:12:25;3.70;99.90
9658;DHT22;4867;48.112;11.622;2023-01-10T07:14:53;3.70;99.90
9658;DHT22;4867;48.112;11.622;2023-01-10T07:17:20;3.70;99.90
9658;DHT22;4867;48.112;11.622;2023-01-10T07:19:47;3.70;99.90
9658;DHT22;4867;48.112;11.622;2023-01-10T07:22:14;3.60;99.90
9658;DHT22;4867;48.112;11.622;2023-01-10T07:24:42;3.60;99.90
9658;DHT22;4867;48.112;11.622;2023-01-10T07:27:09;3.60;99.90
9658;DHT22;4867;48.112;11.622;2023-01-10T07:29:36;3.60;99.90
9658;DHT22;4867;48.112;11.622;2023-01-10T07:32:04;3.60;99.90
9658;DHT22;4867;48.112;11.622;2023-01-10T07:34:31;3.70;99.90
9658;DHT22;4867;48.112;11.622;2023-01-10T07:37:00;3.70;99.90
9658;DHT22;4867;48.112;11.622;2023-01-10T07:39:28;3.70;99.90
9658;DHT22;4867;48.112;11.622;2023-01-10T07:41:55;3.70;99.90
9658;DHT22;4867;48.112;11.622;2023-01-10T07:44:22;3.60;99.90
9658;DHT22;4867;48.112;11.622;2023-01-10T07:46:50;3.70;99.90
9658;DHT22;4867;48.112;11.622;2023-01-10T07:49:17;3.70;99.90
9658;DHT22;4867;48.112;11.622;2023-01-10T07:51:44;3.70;99.90
9658;DHT22;4867;48.112;11.622;2023-01-10T07:54:12;3.70;99.90
9658;DHT22;4867;48.112;11.622;2023-01-10T07:56:41;3.60;99.90
9658;DHT22;4867;48.112;11.622;2023-01-10T07:59:08;3.60;99.90
9658;DHT22;4867;48.112;11.622;2023-01-10T08:01:35;3.80;99.90
9658;DHT22;4867;48.112;11.622;2023-01-10T08:04:03;3.60;99.90
9658;DHT22;4867;48.112;11.622;2023-01-10T08:06:30;3.60;99.90
9658;DHT22;4867;48.112;11.622;2023-01-10T08:08:58;3.70;99.90
9658;DHT22;4867;48.112;11.622;2023-01-10T08:11:25;3.80;99.90
9658;DHT22;4867;48.112;11.622;2023-01-10T08:13:52;3.60;99.90
9658;DHT22;4867;48.112;11.622;2023-01-10T08:16:19;3.70;99.90
9658;DHT22;4867;48.112;11.622;2023-01-10T08:18:47;3.80;99.90
9658;DHT22;4867;48.112;11.622;2023-01-10T08:21:14;3.70;99.90
9658;DHT22;4867;48.112;11.622;2023-01-10T08:23:41;3.80;99.90
9658;DHT22;4867;48.112;11.622;2023-01-10T08:26:09;3.70;99.90
9658;DHT22;4867;48.112;11.622;2023-01-10T08:28:36;3.70;99.90
9658;DHT22;4867;48.112;11.622;2023-01-10T08:31:07;3.70;99.90
9658;DHT22;4867;48.112;11.622;2023-01-10T08:33:41;3.70;99.90
9658;DHT22;4867;48.112;11.622;2023-01-10T08:36:16;3.70;99.90
9658;DHT22;4867;48.112;11.622;2023-01-10T08:38:44;3.70;99.90
9658;DHT22;4867;48.112;11.622;2023-01-10T08:41:11;3.80;99.90
9658;DHT22;4867;48.112;11.622;2023-01-10T08:43:39;3.80;99.90
9658;DHT22;4867;48.112;11.622;2023-01-10T08:46:07;3.80;99.90
9658;DHT22;4867;48.112;11.622;2023-01-10T08:48:34;3.90;99.90
9658;DHT22;4867;48.112;11.622;2023-01-10T08:51:08;3.90;99.90
9658;DHT22;4867;48.112;11.622;2023-01-10T08:53:38;3.90;99.90
9658;DHT22;4867;48.112;11.622;2023-01-10T08:56:06;3.90;99.90
9658;DHT22;4867;48.112;11.622;2023-01-10T08:58:33;3.90;99.90
9658;DHT22;4867;48.112;11.622;2023-01-10T09:01:06;3.90;99.90
9658;DHT22;4867;48.112;11.622;2023-01-10T09:03:34;3.90;99.90
9658;DHT22;4867;48.112;11.622;2023-01-10T09:06:01;4.00;99.90
9658;DHT22;4867;48.112;11.622;2023-01-10T09:08:29;4.00;99.90
9658;DHT22;4867;48.112;11.622;2023-01-10T09:11:00;4.00;99.90
9658;DHT22;4867;48.112;11.622;2023-01-10T09:13:28;4.00;99.90
9658;DHT22;4867;48.112;11.622;2023-01-10T09:15:56;4.00;99.90
9658;DHT22;4867;48.112;11.622;2023-01-10T09:18:23;3.80;99.90
9658;DHT22;4867;48.112;11.622;2023-01-10T09:20:51;3.80;99.90
9658;DHT22;4867;48.112;11.622;2023-01-10T09:23:20;3.70;99.90
9658;DHT22;4867;48.112;11.622;2023-01-10T09:25:50;3.60;99.90
9658;DHT22;4867;48.112;11.622;2023-01-10T09:28:18;3.50;99.90
9658;DHT22;4867;48.112;11.622;2023-01-10T09:30:46;3.50;99.90
9658;DHT22;4867;48.112;11.622;2023-01-10T09:33:13;3.50;99.90
9658;DHT22;4867;48.112;11.622;2023-01-10T09:35:41;3.40;99.90
9658;DHT22;4867;48.112;11.622;2023-01-10T09:38:12;3.30;99.90
9658;DHT22;4867;48.112;11.622;2023-01-10T09:43:56;3.60;99.90
9658;DHT22;4867;48.112;11.622;2023-01-10T09:51:34;4.00;99.90
9658;DHT22;4867;48.112;11.622;2023-01-10T09:54:05;4.10;99.90
9658;DHT22;4867;48.112;11.622;2023-01-10T09:56:39;4.20;99.90
9658;DHT22;4867;48.112;11.622;2023-01-10T09:59:17;4.30;99.90
9658;DHT22;4867;48.112;11.622;2023-01-10T10:01:47;4.40;99.90
9658;DHT22;4867;48.112;11.622;2023-01-10T10:04:44;4.60;99.90
9658;DHT22;4867;48.112;11.622;2023-01-10T10:07:14;4.60;99.90
9658;DHT22;4867;48.112;11.622;2023-01-10T10:09:42;4.80;99.90
9658;DHT22;4867;48.112;11.622;2023-01-10T10:12:50;4.90;99.90
9658;DHT22;4867;48.112;11.622;2023-01-10T10:15:46;5.10;99.90
9658;DHT22;4867;48.112;11.622;2023-01-10T10:24:32;5.40;99.90
9658;DHT22;4867;48.112;11.622;2023-01-10T10:27:15;5.20;99.90
9658;DHT22;4867;48.112;11.622;2023-01-10T10:33:00;5.00;99.90
9658;DHT22;4867;48.112;11.622;2023-01-10T10:35:35;5.00;99.90
9658;DHT22;4867;48.112;11.622;2023-01-10T10:38:26;5.30;99.90
9658;DHT22;4867;48.112;11.622;2023-01-10T10:40:57;5.50;99.90
9658;DHT22;4867;48.112;11.622;2023-01-10T10:43:32;5.70;99.90
9658;DHT22;4867;48.112;11.622;2023-01-10T10:46:09;5.70;99.90
9658;DHT22;4867;48.112;11.622;2023-01-10T10:48:42;5.70;99.90
9658;DHT22;4867;48.112;11.622;2023-01-10T10:51:28;5.60;99.90
9658;DHT22;4867;48.112;11.622;2023-01-10T10:54:00;5.50;99.90
9658;DHT22;4867;48.112;11.622;2023-01-10T10:56:28;5.40;99.90
9658;DHT22;4867;48.112;11.622;2023-01-10T10:58:58;5.50;99.90
9658;DHT22;4867;48.112;11.622;2023-01-10T11:01:26;5.60;99.90
9658;DHT22;4867;48.112;11.622;2023-01-10T11:06:24;5.60;99.90
9658;DHT22;4867;48.112;11.622;2023-01-10T11:08:56;5.50;99.90
9658;DHT22;4867;48.112;11.622;2023-01-10T11:11:34;5.60;99.90
9658;DHT22;4867;48.112;11.622;2023-01-10T11:14:04;5.60;99.90
9658;DHT22;4867;48.112;11.622;2023-01-10T11:16:34;5.60;99.90
9658;DHT22;4867;48.112;11.622;2023-01-10T11:24:29;5.20;99.90
9658;DHT22;4867;48.112;11.622;2023-01-10T11:27:03;5.10;99.90
9658;DHT22;4867;48.112;11.622;2023-01-10T11:29:46;5.10;99.90
9658;DHT22;4867;48.112;11.622;2023-01-10T11:32:21;5.20;99.90
9658;DHT22;4867;48.112;11.622;2023-01-10T11:34:54;5.10;99.90
9658;DHT22;4867;48.112;11.622;2023-01-10T11:37:30;5.20;99.90
9658;DHT22;4867;48.112;11.622;2023-01-10T11:40:15;5.20;99.90
9658;DHT22;4867;48.112;11.622;2023-01-10T11:42:43;5.10;99.90
9658;DHT22;4867;48.112;11.622;2023-01-10T11:50:34;4.90;99.90
9658;DHT22;4867;48.112;11.622;2023-01-10T11:53:04;5.00;99.90
9658;DHT22;4867;48.112;11.622;2023-01-10T11:55:35;5.00;99.90
9658;DHT22;4867;48.112;11.622;2023-01-10T11:58:09;5.00;99.90
9658;DHT22;4867;48.112;11.622;2023-01-10T12:00:44;4.90;99.90
9658;DHT22;4867;48.112;11.622;2023-01-10T12:05:50;4.90;99.90
9658;DHT22;4867;48.112;11.622;2023-01-10T12:08:47;5.10;99.90
9658;DHT22;4867;48.112;11.622;2023-01-10T12:13:51;5.20;99.90
9658;DHT22;4867;48.112;11.622;2023-01-10T12:16:23;5.10;99.90
9658;DHT22;4867;48.112;11.622;2023-01-10T12:18:53;5.20;99.90
9658;DHT22;4867;48.112;11.622;2023-01-10T12:21:28;5.20;99.90
9658;DHT22;4867;48.112;11.622;2023-01-10T12:23:59;5.30;99.90
9658;DHT22;4867;48.112;11.622;2023-01-10T12:26:30;5.20;99.90
9658;DHT22;4867;48.112;11.622;2023-01-10T12:29:04;5.50;99.90
9658;DHT22;4867;48.112;11.622;2023-01-10T12:31:33;5.70;99.90
9658;DHT22;4867;48.112;11.622;2023-01-10T12:34:35;5.70;99.90
9658;DHT22;4867;48.112;11.622;2023-01-10T12:37:20;5.50;99.90
9658;DHT22;4867;48.112;11.622;2023-01-10T12:39:59;5.60;99.90
9658;DHT22;4867;48.112;11.622;2023-01-10T12:42:48;5.50;99.90
9658;DHT22;4867;48.112;11.622;2023-01-10T12:45:49;5.70;99.90
9658;DHT22;4867;48.112;11.622;2023-01-10T12:48:28;5.80;99.90
9658;DHT22;4867;48.112;11.622;2023-01-10T12:51:01;5.90;99.90
9658;DHT22;4867;48.112;11.622;2023-01-10T12:53:38;5.90;99.90
9658;DHT22;4867;48.112;11.622;2023-01-10T12:56:12;5.70;99.90
9658;DHT22;4867;48.112;11.622;2023-01-10T12:58:43;5.70;99.90
9658;DHT22;4867;48.112;11.622;2023-01-10T13:01:14;5.60;99.90
9658;DHT22;4867;48.112;11.622;2023-01-10T13:03:45;5.70;99.90
9658;DHT22;4867;48.112;11.622;2023-01-10T13:06:29;5.60;99.90
9658;DHT22;4867;48.112;11.622;2023-01-10T13:08:59;5.60;99.90
9658;DHT22;4867;48.112;11.622;2023-01-10T13:11:32;5.60;99.90
9658;DHT22;4867;48.112;11.622;2023-01-10T13:14:04;5.60;99.90
9658;DHT22;4867;48.112;11.622;2023-01-10T13:21:38;5.80;99.90
9658;DHT22;4867;48.112;11.622;2023-01-10T13:24:24;5.90;99.90
9658;DHT22;4867;48.112;11.622;2023-01-10T13:26:56;5.80;99.90
9658;DHT22;4867;48.112;11.622;2023-01-10T13:29:25;5.80;99.90
9658;DHT22;4867;48.112;11.622;2023-01-10T13:32:00;5.80;99.90
9658;DHT22;4867;48.112;11.622;2023-01-10T13:34:33;5.70;99.90
9658;DHT22;4867;48.112;11.622;2023-01-10T13:37:12;5.60;99.90
9658;DHT22;4867;48.112;11.622;2023-01-10T13:39:42;5.70;99.90
9658;DHT22;4867;48.112;11.622;2023-01-10T13:55:57;5.60;99.90
9658;DHT22;4867;48.112;11.622;2023-01-10T13:58:40;5.60;99.90
9658;DHT22;4867;48.112;11.622;2023-01-10T14:01:35;5.70;99.90
9658;DHT22;4867;48.112;11.622;2023-01-10T14:04:34;5.80;99.90
9658;DHT22;4867;48.112;11.622;2023-01-10T14:07:11;5.80;99.90
9658;DHT22;4867;48.112;11.622;2023-01-10T14:09:42;5.80;99.90
9658;DHT22;4867;48.112;11.622;2023-01-10T14:14:54;5.90;99.90
9658;DHT22;4867;48.112;11.622;2023-01-10T14:17:26;5.90;99.90
9658;DHT22;4867;48.112;11.622;2023-01-10T14:22:36;5.80;99.90
9658;DHT22;4867;48.112;11.622;2023-01-10T14:25:18;5.80;99.90
9658;DHT22;4867;48.112;11.622;2023-01-10T14:27:49;5.80;99.90
9658;DHT22;4867;48.112;11.622;2023-01-10T14:30:21;5.70;99.90
9658;DHT22;4867;48.112;11.622;2023-01-10T14:32:51;5.70;99.90
9658;DHT22;4867;48.112;11.622;2023-01-10T14:35:29;5.70;99.90
9658;DHT22;4867;48.112;11.622;2023-01-10T14:37:59;5.70;99.90
9658;DHT22;4867;48.112;11.622;2023-01-10T14:40:37;5.70;99.90
9658;DHT22;4867;48.112;11.622;2023-01-10T14:43:17;5.70;99.90
9658;DHT22;4867;48.112;11.622;2023-01-10T14:45:50;5.70;99.90
9658;DHT22;4867;48.112;11.622;2023-01-10T14:51:21;5.90;99.90
9658;DHT22;4867;48.112;11.622;2023-01-10T14:53:57;5.90;99.90
9658;DHT22;4867;48.112;11.622;2023-01-10T14:56:28;6.10;99.90
9658;DHT22;4867;48.112;11.622;2023-01-10T14:58:56;6.00;99.90
9658;DHT22;4867;48.112;11.622;2023-01-10T15:01:26;6.00;99.90
9658;DHT22;4867;48.112;11.622;2023-01-10T15:03:54;6.00;99.90
9658;DHT22;4867;48.112;11.622;2023-01-10T15:06:23;6.00;99.90
9658;DHT22;4867;48.112;11.622;2023-01-10T15:08:57;6.00;99.90
9658;DHT22;4867;48.112;11.622;2023-01-10T15:11:25;5.90;99.90
9658;DHT22;4867;48.112;11.622;2023-01-10T15:14:00;6.00;99.90
9658;DHT22;4867;48.112;11.622;2023-01-10T15:16:30;5.90;99.90
9658;DHT22;4867;48.112;11.622;2023-01-10T15:18:58;6.00;99.90
9658;DHT22;4867;48.112;11.622;2023-01-10T15:21:26;5.90;99.90
9658;DHT22;4867;48.112;11.622;2023-01-10T15:23:53;5.70;99.90
9658;DHT22;4867;48.112;11.622;2023-01-10T15:26:26;5.70;99.90
9658;DHT22;4867;48.112;11.622;2023-01-10T15:29:12;5.60;99.90
9658;DHT22;4867;48.112;11.622;2023-01-10T15:31:40;5.60;99.90
9658;DHT22;4867;48.112;11.622;2023-01-10T15:34:10;5.50;99.90
9658;DHT22;4867;48.112;11.622;2023-01-10T15:36:52;5.40;99.90
9658;DHT22;4867;48.112;11.622;2023-01-10T15:39:23;5.50;99.90
9658;DHT22;4867;48.112;11.622;2023-01-10T15:41:57;5.40;99.90
9658;DHT22;4867;48.112;11.622;2023-01-10T15:47:00;5.20;99.90
9658;DHT22;4867;48.112;11.622;2023-01-10T15:49:28;5.20;99.90
9658;DHT22;4867;48.112;11.622;2023-01-10T15:51:56;5.00;99.90
9658;DHT22;4867;48.112;11.622;2023-01-10T15:57:03;4.90;99.90
9658;DHT22;4867;48.112;11.622;2023-01-10T15:59:44;4.80;99.90
9658;DHT22;4867;48.112;11.622;2023-01-10T16:02:31;4.70;99.90
9658;DHT22;4867;48.112;11.622;2023-01-10T16:05:08;4.70;99.90
9658;DHT22;4867;48.112;11.622;2023-01-10T16:07:45;4.60;99.90
9658;DHT22;4867;48.112;11.622;2023-01-10T16:10:24;4.60;99.90
9658;DHT22;4867;48.112;11.622;2023-01-10T16:12:52;4.50;99.90
9658;DHT22;4867;48.112;11.622;2023-01-10T16:15:54;4.60;99.90
9658;DHT22;4867;48.112;11.622;2023-01-10T16:18:23;4.50;99.90
9658;DHT22;4867;48.112;11.622;2023-01-10T16:20:53;4.40;99.90
9658;DHT22;4867;48.112;11.622;2023-01-10T16:23:24;4.40;99.90
9658;DHT22;4867;48.112;11.622;2023-01-10T16:25:55;4.40;99.90
9658;DHT22;4867;48.112;11.622;2023-01-10T16:28:22;4.30;99.90
9658;DHT22;4867;48.112;11.622;2023-01-10T16:30:51;4.20;99.90
9658;DHT22;4867;48.112;11.622;2023-01-10T16:33:21;4.20;99.90
9658;DHT22;4867;48.112;11.622;2023-01-10T16:35:52;4.10;99.90
9658;DHT22;4867;48.112;11.622;2023-01-10T16:38:22;4.10;99.90
9658;DHT22;4867;48.112;11.622;2023-01-10T16:43:18;4.00;99.90
9658;DHT22;4867;48.112;11.622;2023-01-10T16:48:17;3.90;99.90
9658;DHT22;4867;48.112;11.622;2023-01-10T16:50:46;3.90;99.90
9658;DHT22;4867;48.112;11.622;2023-01-10T16:53:16;3.80;99.90
9658;DHT22;4867;48.112;11.622;2023-01-10T16:56:01;3.70;99.90
9658;DHT22;4867;48.112;11.622;2023-01-10T16:58:28;3.70;99.90
9658;DHT22;4867;48.112;11.622;2023-01-10T17:00:56;3.70;99.90
9658;DHT22;4867;48.112;11.622;2023-01-10T17:03:25;3.60;99.90
9658;DHT22;4867;48.112;11.622;2023-01-10T17:05:53;3.70;99.90
9658;DHT22;4867;48.112;11.622;2023-01-10T17:08:22;3.50;99.90
9658;DHT22;4867;48.112;11.622;2023-01-10T17:10:53;3.50;99.90
9658;DHT22;4867;48.112;11.622;2023-01-10T17:13:33;3.50;99.90
9658;DHT22;4867;48.112;11.622;2023-01-10T17:16:02;3.50;99.90
9658;DHT22;4867;48.112;11.622;2023-01-10T17:18:29;3.40;99.90
9658;DHT22;4867;48.112;11.622;2023-01-10T17:20:57;3.40;99.90
9658;DHT22;4867;48.112;11.622;2023-01-10T17:23:25;3.40;99.90
9658;DHT22;4867;48.112;11.622;2023-01-10T17:26:01;3.30;99.90
9658;DHT22;4867;48.112;11.622;2023-01-10T17:28:29;3.20;99.90
9658;DHT22;4867;48.112;11.622;2023-01-10T17:30:57;3.20;99.90
9658;DHT22;4867;48.112;11.622;2023-01-10T17:33:25;3.10;99.90
9658;DHT22;4867;48.112;11.622;2023-01-10T17:35:54;3.10;99.90
9658;DHT22;4867;48.112;11.622;2023-01-10T17:38:23;3.00;99.90
9658;DHT22;4867;48.112;11.622;2023-01-10T17:40:52;3.00;99.90
9658;DHT22;4867;48.112;11.622;2023-01-10T17:43:20;2.90;99.90
9658;DHT22;4867;48.112;11.622;2023-01-10T17:45:50;2.90;99.90
9658;DHT22;4867;48.112;11.622;2023-01-10T17:48:18;2.90;99.90
9658;DHT22;4867;48.112;11.622;2023-01-10T17:50:47;2.90;99.90
9658;DHT22;4867;48.112;11.622;2023-01-10T17:53:16;2.90;99.90
9658;DHT22;4867;48.112;11.622;2023-01-10T17:55:47;2.80;99.90
9658;DHT22;4867;48.112;11.622;2023-01-10T17:58:16;2.80;99.90
9658;DHT22;4867;48.112;11.622;2023-01-10T18:00:53;2.70;99.90
9658;DHT22;4867;48.112;11.622;2023-01-10T18:03:20;2.70;99.90
9658;DHT22;4867;48.112;11.622;2023-01-10T18:05:56;2.70;99.90
9658;DHT22;4867;48.112;11.622;2023-01-10T18:08:24;2.60;99.90
9658;DHT22;4867;48.112;11.622;2023-01-10T18:10:58;2.50;99.90
9658;DHT22;4867;48.112;11.622;2023-01-10T18:13:26;2.50;99.90
9658;DHT22;4867;48.112;11.622;2023-01-10T18:16:00;2.50;99.90
9658;DHT22;4867;48.112;11.622;2023-01-10T18:18:28;2.40;99.90
9658;DHT22;4867;48.112;11.622;2023-01-10T18:20:56;2.30;99.90
9658;DHT22;4867;48.112;11.622;2023-01-10T18:23:27;2.30;99.90